Time;durP1;ratioP1;P1;durP2;ratioP2;P2;SDS_P1;SDS_P2;PMS_P1;PMS_P2;Temp;Humidity;BMP_temperature;BMP_pressure;BME280_temperature;BME280_humidity;BME280_pressure;Samples;Min_cycle;Max_cycle;Signal;HPM_P1;HPM_P2
2023/02/20 00:00:30;;;;;;;6.07;3.17;;;;;;;9.32;61.21;97235.97;4986847;28;20198;-70
2023/02/20 00:02:55;;;;;;;7.10;2.53;;;;;;;9.33;61.50;97235.94;4987799;28;20227;-70
2023/02/20 00:05:22;;;;;;;4.23;3.27;;;;;;;9.30;60.63;97245.63;4977634;28;20421;-69
2023/02/20 00:07:47;;;;;;;3.70;2.77;;;;;;;9.22;61.82;97240.56;4971007;28;20614;-69
2023/02/20 00:10:13;;;;;;;7.93;3.20;;;;;;;9.29;60.82;97252.63;4970875;28;20421;-70
2023/02/20 00:12:39;;;;;;;4.43;3.33;;;;;;;9.33;60.48;97249.03;4969337;28;20178;-71
2023/02/20 00:15:05;;;;;;;5.37;2.67;;;;;;;9.30;61.33;97240.38;4970546;28;20176;-69
2023/02/20 00:17:31;;;;;;;8.60;3.40;;;;;;;9.41;60.76;97246.22;4970704;28;20717;-70
2023/02/20 00:19:56;;;;;;;8.83;3.07;;;;;;;9.41;60.96;97243.59;4970759;28;20494;-69
2023/02/20 00:22:22;;;;;;;6.20;3.90;;;;;;;9.35;60.70;97243.72;4971175;28;20547;-70
2023/02/20 00:24:48;;;;;;;9.10;2.93;;;;;;;9.30;61.28;97245.63;4970767;28;20180;-70
2023/02/20 00:27:13;;;;;;;4.63;3.53;;;;;;;9.30;61.22;97238.59;4970355;28;20208;-71
2023/02/20 00:29:39;;;;;;;9.33;3.47;;;;;;;9.34;61.15;97236.78;4969636;28;20479;-71
2023/02/20 00:32:04;;;;;;;8.10;3.67;;;;;;;9.35;61.71;97232.41;4951258;29;20174;-69
2023/02/20 00:34:30;;;;;;;21.70;5.73;;;;;;;9.32;60.75;97256.91;4965941;28;20656;-70
2023/02/20 00:36:55;;;;;;;5.37;2.60;;;;;;;9.37;61.47;97249.78;4950807;29;20244;-71
2023/02/20 00:39:21;;;;;;;5.80;2.87;;;;;;;9.35;61.46;97254.22;4951274;28;20220;-70
2023/02/20 00:41:47;;;;;;;5.67;2.97;;;;;;;9.32;61.85;97259.53;4949814;28;20182;-68
2023/02/20 00:44:13;;;;;;;10.63;3.30;;;;;;;9.27;61.57;97262.25;4951197;29;20642;-69
2023/02/20 00:46:39;;;;;;;7.93;3.80;;;;;;;9.29;62.06;97247.38;4961477;28;20453;-70
2023/02/20 00:49:04;;;;;;;9.50;3.77;;;;;;;9.33;62.00;97235.09;4970067;28;20492;-70
2023/02/20 00:51:31;;;;;;;4.77;2.93;;;;;;;9.40;61.38;97239.25;4970255;28;20260;-71
2023/02/20 00:53:56;;;;;;;8.37;3.63;;;;;;;9.31;61.95;97242.13;4970200;28;20186;-71
2023/02/20 00:56:22;;;;;;;5.00;3.10;;;;;;;9.23;62.43;97249.28;4984400;28;20421;-70
2023/02/20 00:58:48;;;;;;;4.00;2.80;;;;;;;9.21;61.82;97244.09;4970039;28;20223;-71
2023/02/20 01:01:15;;;;;;;6.10;3.33;;;;;;;9.24;62.61;97243.16;4969944;28;20448;-68
2023/02/20 01:03:41;;;;;;;2.87;2.37;;;;;;;9.21;62.44;97243.22;4969257;28;20225;-69
2023/02/20 01:06:06;;;;;;;4.60;2.70;;;;;;;9.16;61.84;97245.09;4969330;28;20472;-71
2023/02/20 01:08:32;;;;;;;5.97;3.77;;;;;;;9.23;61.92;97255.38;4969852;28;20417;-69
2023/02/20 01:10:58;;;;;;;7.40;3.90;;;;;;;9.16;62.70;97252.97;4969623;28;20203;-70
2023/02/20 01:13:24;;;;;;;6.03;3.70;;;;;;;9.11;62.42;97264.41;4969786;28;20174;-69
2023/02/20 01:15:50;;;;;;;8.03;3.60;;;;;;;9.13;62.99;97264.38;4969554;28;20457;-70
2023/02/20 01:18:15;;;;;;;10.13;4.20;;;;;;;9.09;62.39;97278.41;4969516;28;20460;-69
2023/02/20 01:20:41;;;;;;;4.57;3.37;;;;;;;9.13;62.16;97271.38;4969339;28;20197;-70
2023/02/20 01:23:06;;;;;;;3.87;3.47;;;;;;;9.15;62.25;97267.81;4969823;28;20319;-71
2023/02/20 01:25:32;;;;;;;5.60;3.47;;;;;;;9.21;62.68;97261.56;4969274;28;20193;-69
2023/02/20 01:27:57;;;;;;;5.57;3.63;;;;;;;9.29;61.59;97255.22;4969073;28;20212;-69
2023/02/20 01:30:23;;;;;;;10.03;3.53;;;;;;;9.20;62.47;97249.38;4966916;28;20201;-70
2023/02/20 01:32:48;;;;;;;4.13;2.83;;;;;;;9.09;62.38;97258.38;4969297;28;20177;-70
2023/02/20 01:35:14;;;;;;;3.70;2.73;;;;;;;9.10;62.78;97249.59;4969319;28;20178;-69
2023/02/20 01:37:40;;;;;;;5.40;3.17;;;;;;;9.11;62.35;97246.06;4968710;28;20221;-71
2023/02/20 01:40:06;;;;;;;5.90;3.00;;;;;;;9.13;62.94;97243.41;4969189;28;20475;-69
2023/02/20 01:42:33;;;;;;;3.50;2.80;;;;;;;9.08;62.23;97247.91;4969357;28;20177;-69
2023/02/20 01:45:35;;;;;;;7.20;3.10;;;;;;;9.04;62.36;97248.88;4969144;28;20444;-70
2023/02/20 01:48:01;;;;;;;4.20;3.40;;;;;;;8.99;62.80;97242.91;5002189;28;20505;-68
2023/02/20 01:50:50;;;;;;;4.50;3.57;;;;;;;9.15;62.63;97235.53;4991408;28;20499;-68
2023/02/20 01:53:20;;;;;;;6.83;3.20;;;;;;;9.09;62.63;97236.53;4988109;28;20189;-70
2023/02/20 01:55:52;;;;;;;6.77;3.40;;;;;;;9.00;62.64;97237.63;4988233;28;20451;-70
2023/02/20 01:58:22;;;;;;;80.57;12.77;;;;;;;9.06;63.12;97237.47;4988111;28;20422;-69
2023/02/20 02:00:48;;;;;;;24.53;4.50;;;;;;;9.05;62.18;97237.53;4988287;28;20428;-70
2023/02/20 02:03:18;;;;;;;7.50;3.30;;;;;;;9.11;62.48;97235.59;4988365;28;20458;-71
2023/02/20 02:05:47;;;;;;;11.43;3.37;;;;;;;9.17;61.70;97239.84;4987928;28;20187;-71
2023/02/20 02:08:15;;;;;;;7.03;2.93;;;;;;;9.10;61.94;97241.75;4987939;28;20413;-70
2023/02/20 02:11:03;;;;;;;7.93;3.80;;;;;;;9.08;62.37;97235.69;4987868;28;20530;-71
2023/02/20 02:13:30;;;;;;;3.23;2.87;;;;;;;9.05;61.71;97241.00;4987941;28;20420;-72
2023/02/20 02:16:14;;;;;;;4.83;3.13;;;;;;;9.12;61.83;97231.25;4987022;28;20424;-71
2023/02/20 02:18:56;;;;;;;7.10;3.20;;;;;;;9.05;61.32;97227.91;4987811;28;20400;-71
2023/02/20 02:21:40;;;;;;;10.83;2.60;;;;;;;9.16;61.97;97225.00;4987769;28;20428;-72
2023/02/20 02:24:23;;;;;;;7.00;2.70;;;;;;;9.01;61.62;97213.16;4971853;28;20940;-70
2023/02/20 02:27:13;;;;;;;5.13;2.80;;;;;;;9.03;62.24;97223.59;4967910;28;20453;-71
2023/02/20 02:29:53;;;;;;;8.03;6.03;;;;;;;8.99;62.44;97229.81;4968183;28;20437;-71
2023/02/20 02:32:21;;;;;;;5.37;3.03;;;;;;;8.99;61.96;97228.03;4968216;28;20500;-71
2023/02/20 02:34:46;;;;;;;4.33;2.93;;;;;;;9.04;61.34;97227.94;4968271;28;20515;-71
2023/02/20 02:37:47;;;;;;;4.63;2.80;;;;;;;9.00;61.70;97211.47;4968007;28;20508;-69
2023/02/20 02:40:23;;;;;;;3.90;2.63;;;;;;;9.08;61.57;97200.78;4975156;28;20204;-71
2023/02/20 02:43:44;;;;;;;5.80;3.30;;;;;;;9.06;61.89;97195.56;4980580;28;20436;-70
2023/02/20 02:46:27;;;;;;;4.87;3.20;;;;;;;9.04;61.89;97196.50;4980264;28;20463;-70
2023/02/20 02:49:14;;;;;;;5.80;3.27;;;;;;;9.01;62.05;97192.22;4975378;28;20420;-69
2023/02/20 02:51:44;;;;;;;5.57;3.03;;;;;;;8.88;61.95;97201.25;4968171;28;20405;-69
2023/02/20 02:54:23;;;;;;;5.47;3.57;;;;;;;8.93;62.17;97195.91;4968233;28;20413;-70
2023/02/20 02:56:48;;;;;;;8.87;3.33;;;;;;;8.87;62.23;97203.03;4967651;28;20852;-69
2023/02/20 02:59:27;;;;;;;3.70;2.60;;;;;;;8.71;62.59;97192.97;4968088;28;20437;-71
2023/02/20 03:02:00;;;;;;;4.17;2.83;;;;;;;8.72;62.44;97192.06;4966921;28;20212;-69
2023/02/20 03:04:28;;;;;;;7.60;2.80;;;;;;;8.84;62.54;97197.03;4968517;28;20519;-69
2023/02/20 03:07:02;;;;;;;5.77;2.93;;;;;;;8.72;61.88;97195.56;4973878;28;21036;-71
2023/02/20 03:09:34;;;;;;;5.87;2.60;;;;;;;8.69;62.03;97195.59;4980057;28;20429;-71
2023/02/20 03:12:02;;;;;;;4.47;3.20;;;;;;;8.68;62.01;97197.38;4978325;28;20552;-70
2023/02/20 03:17:35;;;;;;;8.47;3.50;;;;;;;8.74;62.47;97188.53;4978892;28;20404;-69
2023/02/20 03:20:12;;;;;;;4.30;3.13;;;;;;;8.57;62.05;97196.75;4978704;28;20446;-70
2023/02/20 03:22:52;;;;;;;4.57;3.20;;;;;;;8.57;62.23;97201.97;4978603;28;20401;-71
2023/02/20 03:25:18;;;;;;;3.73;2.50;;;;;;;8.49;62.19;97206.53;4976403;28;20408;-72
2023/02/20 03:27:49;;;;;;;8.47;3.30;;;;;;;8.43;62.50;97199.72;4976092;28;20487;-71
2023/02/20 03:30:23;;;;;;;6.90;3.30;;;;;;;8.41;62.56;97203.22;4966772;28;20791;-70
2023/02/20 03:44:04;;;;;;;9.43;3.00;;;;;;;8.31;62.55;97202.53;4952172;29;20413;-70
2023/02/20 03:46:32;;;;;;;4.10;3.00;;;;;;;8.50;62.09;97203.03;4963715;28;20898;-69
2023/02/20 03:49:27;;;;;;;4.03;2.50;;;;;;;8.39;61.83;97203.25;4990854;28;20420;-67
2023/02/20 03:51:59;;;;;;;3.30;2.47;;;;;;;8.42;61.74;97207.59;4990617;28;20436;-72
2023/02/20 03:54:27;;;;;;;5.83;3.40;;;;;;;8.39;62.41;97197.16;4990641;28;20443;-72
2023/02/20 03:57:01;;;;;;;4.70;3.37;;;;;;;8.32;62.28;97200.81;4990393;28;20408;-70
2023/02/20 03:59:59;;;;;;;5.70;3.13;;;;;;;8.34;62.00;97201.59;4990588;28;20490;-70
2023/02/20 04:02:30;;;;;;;5.70;2.90;;;;;;;8.43;62.64;97204.94;4988871;28;20432;-70
2023/02/20 04:05:04;;;;;;;3.47;3.17;;;;;;;8.29;62.68;97204.31;4990579;28;20416;-69
2023/02/20 04:07:36;;;;;;;6.83;3.13;;;;;;;8.30;62.98;97199.97;4990228;28;21015;-71
2023/02/20 04:10:05;;;;;;;6.00;3.10;;;;;;;8.34;61.77;97197.25;4990381;28;20436;-70
2023/02/20 04:12:36;;;;;;;6.63;3.03;;;;;;;8.31;62.86;97194.69;4990462;28;20412;-70
2023/02/20 04:15:03;;;;;;;5.30;3.37;;;;;;;8.42;61.86;97191.88;4990211;28;20968;-70
2023/02/20 04:17:35;;;;;;;7.87;5.17;;;;;;;8.38;61.54;97191.03;4989998;28;20428;-71
2023/02/20 04:20:01;;;;;;;4.90;3.57;;;;;;;8.35;62.04;97190.28;4990220;28;20519;-69
2023/02/20 04:22:31;;;;;;;5.27;4.00;;;;;;;8.26;62.81;97186.09;4989302;28;20777;-70
2023/02/20 04:25:06;;;;;;;6.40;4.90;;;;;;;8.33;62.65;97181.59;4990192;28;20419;-69
2023/02/20 04:27:32;;;;;;;14.10;4.40;;;;;;;8.33;62.68;97192.06;4989812;28;20465;-71
2023/02/20 04:29:57;;;;;;;6.50;4.63;;;;;;;8.47;61.95;97184.78;4986636;28;20803;-72
2023/02/20 04:32:23;;;;;;;5.90;3.90;;;;;;;8.35;62.52;97191.13;4969072;28;20553;-70
2023/02/20 04:34:48;;;;;;;7.27;4.30;;;;;;;8.40;61.64;97191.06;4970641;28;20177;-69
2023/02/20 04:37:18;;;;;;;9.00;4.80;;;;;;;8.31;61.68;97194.69;4969906;28;20173;-69
2023/02/20 04:39:44;;;;;;;4.43;4.03;;;;;;;8.23;62.22;97197.50;4969628;28;20221;-72
2023/02/20 04:42:10;;;;;;;10.73;3.90;;;;;;;8.25;61.47;97195.69;4970214;28;20421;-70
2023/02/20 04:44:36;;;;;;;10.87;5.10;;;;;;;8.28;61.29;97197.38;4970100;28;21021;-70
2023/02/20 04:47:10;;;;;;;8.13;3.97;;;;;;;8.28;60.94;97186.94;4971937;28;20201;-69
2023/02/20 04:49:35;;;;;;;4.50;3.57;;;;;;;8.13;61.47;97201.19;4970089;28;20284;-70
2023/02/20 04:52:01;;;;;;;5.70;3.63;;;;;;;8.17;61.34;97199.38;4970065;28;20429;-68
2023/02/20 04:54:26;;;;;;;12.47;5.00;;;;;;;8.14;61.99;97200.28;4970378;28;20209;-70
2023/02/20 04:56:52;;;;;;;4.40;3.73;;;;;;;8.09;62.46;97202.16;4969694;28;20173;-68
2023/02/20 04:59:18;;;;;;;8.33;4.30;;;;;;;8.13;61.85;97211.66;4969910;28;20197;-68
2023/02/20 05:01:46;;;;;;;5.93;3.83;;;;;;;8.16;61.19;97205.50;4970015;28;20925;-68
2023/02/20 05:04:14;;;;;;;10.63;4.43;;;;;;;8.15;61.25;97209.88;4970384;28;20259;-70
2023/02/20 05:06:42;;;;;;;6.43;4.93;;;;;;;8.11;61.44;97208.22;4969714;28;20579;-71
2023/02/20 05:09:09;;;;;;;7.40;4.20;;;;;;;8.03;62.11;97194.44;4969904;28;20421;-67
2023/02/20 05:11:35;;;;;;;7.63;3.63;;;;;;;8.00;61.65;97203.19;4970045;28;20420;-71
2023/02/20 05:14:01;;;;;;;8.40;4.00;;;;;;;7.97;62.64;97202.41;4969799;28;20421;-68
2023/02/20 05:16:27;;;;;;;9.63;4.73;;;;;;;7.81;62.90;97192.25;4969517;28;20444;-70
2023/02/20 05:18:52;;;;;;;6.00;4.23;;;;;;;7.76;62.92;97196.72;4969521;28;20839;-68
2023/02/20 05:24:01;;;;;;;6.97;3.50;;;;;;;7.81;63.12;97196.63;4969489;28;20181;-68
2023/02/20 05:26:27;;;;;;;10.17;4.40;;;;;;;7.81;63.08;97196.63;4968093;28;20974;-69
2023/02/20 05:28:52;;;;;;;5.67;3.40;;;;;;;7.74;63.04;97201.13;4969464;28;20177;-68
2023/02/20 05:31:18;;;;;;;8.90;4.30;;;;;;;7.75;63.21;97199.38;4955474;28;20206;-70
2023/02/20 05:33:43;;;;;;;7.73;3.47;;;;;;;7.83;62.57;97200.09;4950308;29;20170;-70
2023/02/20 05:36:09;;;;;;;12.00;4.53;;;;;;;7.72;62.99;97200.28;4949459;29;20179;-69
2023/02/20 05:38:34;;;;;;;10.33;4.90;;;;;;;7.66;63.20;97195.19;4950132;29;20186;-71
2023/02/20 05:40:59;;;;;;;12.60;4.63;;;;;;;7.70;63.43;97206.44;4957255;28;20986;-70
2023/02/20 05:43:25;;;;;;;30.00;6.57;;;;;;;7.65;63.31;97201.28;4967367;28;20240;-70
2023/02/20 05:45:50;;;;;;;7.63;3.80;;;;;;;7.68;63.03;97206.47;4968161;28;20255;-69
2023/02/20 05:48:16;;;;;;;8.50;4.20;;;;;;;7.52;63.85;97207.66;4968955;28;20810;-69
2023/02/20 05:50:41;;;;;;;10.97;5.33;;;;;;;7.60;63.79;97210.97;4982790;28;20201;-69
2023/02/20 05:53:07;;;;;;;10.90;5.20;;;;;;;7.58;63.82;97217.97;4967209;28;20200;-71
2023/02/20 05:55:32;;;;;;;8.90;5.17;;;;;;;7.57;64.01;97206.66;4976333;28;20170;-68
2023/02/20 05:57:58;;;;;;;7.87;4.10;;;;;;;7.69;62.93;97200.34;4976326;28;20188;-69
2023/02/20 06:00:24;;;;;;;16.63;5.87;;;;;;;7.67;63.12;97215.19;4977088;28;20190;-70
2023/02/20 06:02:50;;;;;;;6.43;4.70;;;;;;;7.63;62.88;97210.94;4974041;28;20235;-71
2023/02/20 06:05:16;;;;;;;11.30;4.80;;;;;;;7.48;63.33;97208.59;4969563;28;20448;-70
2023/02/20 06:07:43;;;;;;;13.23;5.07;;;;;;;7.37;63.69;97211.41;4968862;28;20614;-70
2023/02/20 06:10:08;;;;;;;5.67;3.97;;;;;;;7.32;64.00;97223.69;4969199;28;20429;-71
2023/02/20 06:12:34;;;;;;;4.87;3.83;;;;;;;7.31;63.94;97227.19;4968964;28;20471;-71
2023/02/20 06:14:59;;;;;;;10.40;4.10;;;;;;;7.38;64.01;97219.22;4968602;28;20165;-69
2023/02/20 06:17:25;;;;;;;7.33;5.30;;;;;;;7.40;63.70;97220.03;4968557;28;20181;-69
2023/02/20 06:19:50;;;;;;;9.67;4.53;;;;;;;7.42;63.62;97222.66;4968919;28;20811;-71
2023/02/20 06:22:16;;;;;;;8.10;3.63;;;;;;;7.43;63.65;97216.53;4968912;28;20181;-68
2023/02/20 06:24:46;;;;;;;4.37;3.37;;;;;;;7.54;63.35;97211.09;4967396;28;20277;-69
2023/02/20 06:27:12;;;;;;;4.63;3.93;;;;;;;7.74;62.29;97214.19;4968339;28;20460;-70
2023/02/20 06:29:37;;;;;;;6.27;3.67;;;;;;;8.10;61.11;97210.84;4968411;28;20500;-69
2023/02/20 06:32:03;;;;;;;10.63;6.30;;;;;;;8.29;59.93;97217.41;4968665;28;20881;-70
2023/02/20 06:34:32;;;;;;;7.83;4.03;;;;;;;8.65;58.91;97218.38;4966694;28;20593;-70
2023/02/20 06:36:58;;;;;;;7.40;4.00;;;;;;;8.95;57.85;97223.78;4964145;28;20244;-68
2023/02/20 06:39:24;;;;;;;6.17;5.07;;;;;;;9.44;56.66;97216.44;4963546;28;20851;-69
2023/02/20 06:41:49;;;;;;;9.60;4.20;;;;;;;9.79;55.56;97218.13;4960539;28;20426;-70
2023/02/20 06:44:15;;;;;;;7.63;4.80;;;;;;;9.95;54.96;97221.19;4959236;28;20192;-68
2023/02/20 06:46:40;;;;;;;3.83;3.20;;;;;;;10.23;53.66;97223.88;4963060;28;20209;-68
2023/02/20 06:49:06;;;;;;;6.07;4.20;;;;;;;10.48;52.75;97224.00;4962778;28;20754;-70
2023/02/20 06:51:33;;;;;;;5.10;3.10;;;;;;;10.95;51.87;97221.66;4963050;28;20170;-69
2023/02/20 06:54:00;;;;;;;5.93;3.40;;;;;;;11.29;50.43;97212.69;4965821;28;20174;-68
2023/02/20 06:56:29;;;;;;;7.20;3.90;;;;;;;11.24;50.09;97219.84;4953916;28;20616;-71
2023/02/20 06:58:55;;;;;;;18.30;4.80;;;;;;;11.57;49.41;97232.75;4946429;28;20418;-70
2023/02/20 07:01:25;;;;;;;13.43;4.40;;;;;;;11.95;48.34;97233.22;4963593;28;20416;-69
2023/02/20 07:03:53;;;;;;;26.10;5.30;;;;;;;12.70;47.26;97227.78;4969831;28;20427;-68
2023/02/20 07:06:18;;;;;;;6.47;3.77;;;;;;;13.07;45.84;97231.59;4964860;28;20678;-67
2023/02/20 07:08:44;;;;;;;5.57;3.10;;;;;;;13.29;44.11;97235.06;4968313;28;20515;-69
2023/02/20 07:11:10;;;;;;;7.60;3.30;;;;;;;14.08;43.14;97237.00;4968201;28;20201;-70
2023/02/20 07:13:36;;;;;;;7.17;4.10;;;;;;;14.70;41.18;97220.09;4970459;28;20402;-69
2023/02/20 07:16:01;;;;;;;35.43;7.23;;;;;;;14.98;40.36;97213.50;4981394;28;20424;-69
2023/02/20 07:18:27;;;;;;;17.90;5.07;;;;;;;15.24;40.08;97213.06;4974500;28;20189;-70
2023/02/20 07:20:53;;;;;;;39.80;7.03;;;;;;;15.47;38.95;97213.69;4966671;28;20554;-68
2023/02/20 07:23:19;;;;;;;14.20;5.00;;;;;;;15.67;38.49;97215.34;4967887;28;20208;-68
2023/02/20 07:25:46;;;;;;;15.67;4.87;;;;;;;16.69;38.25;97213.47;4969417;28;20482;-68
2023/02/20 07:28:12;;;;;;;8.47;4.17;;;;;;;16.64;36.20;97216.38;4969035;28;20211;-69
2023/02/20 07:30:38;;;;;;;20.73;6.03;;;;;;;16.30;37.27;97215.59;4967728;28;20465;-68
2023/02/20 07:33:03;;;;;;;8.23;4.00;;;;;;;16.43;36.50;97220.22;4968978;28;20170;-68
2023/02/20 07:35:28;;;;;;;98.87;10.30;;;;;;;17.03;35.31;97216.91;4968903;28;20175;-68
2023/02/20 07:37:54;;;;;;;14.70;5.90;;;;;;;16.92;35.10;97215.72;4968461;28;20611;-68
2023/02/20 07:40:19;;;;;;;12.90;4.07;;;;;;;17.40;35.11;97217.47;4968807;28;20284;-68
2023/02/20 07:42:45;;;;;;;26.33;5.67;;;;;;;17.59;34.35;97214.59;4968868;28;20296;-68
2023/02/20 07:45:10;;;;;;;11.60;3.97;;;;;;;17.32;34.41;97224.06;4971180;28;20197;-67
2023/02/20 07:47:36;;;;;;;19.40;5.50;;;;;;;17.55;33.71;97220.09;4971145;28;20206;-68
2023/02/20 07:50:02;;;;;;;14.40;4.70;;;;;;;17.95;33.48;97219.50;4971430;28;20797;-67
2023/02/20 07:52:27;;;;;;;12.50;4.23;;;;;;;18.10;32.97;97226.56;4971414;28;20170;-67
2023/02/20 07:54:52;;;;;;;15.63;4.77;;;;;;;18.41;32.43;97216.72;4971562;28;20185;-69
2023/02/20 07:57:18;;;;;;;6.10;3.57;;;;;;;18.52;32.35;97213.34;4970935;28;20627;-68
2023/02/20 07:59:43;;;;;;;20.23;4.83;;;;;;;18.91;31.50;97203.84;4970975;28;20921;-68
2023/02/20 08:02:09;;;;;;;6.20;3.37;;;;;;;19.34;31.28;97206.34;4971146;28;20248;-68
2023/02/20 08:04:34;;;;;;;19.23;5.27;;;;;;;19.19;30.99;97206.41;4971050;28;20204;-68
2023/02/20 08:06:59;;;;;;;14.53;4.20;;;;;;;19.40;30.60;97200.63;4970748;28;20201;-68
2023/02/20 08:09:25;;;;;;;11.73;4.03;;;;;;;19.44;30.83;97207.44;4970895;28;20678;-68
2023/02/20 08:11:50;;;;;;;5.07;3.13;;;;;;;19.70;30.46;97204.88;4970870;28;20248;-67
2023/02/20 08:14:16;;;;;;;4.07;3.30;;;;;;;19.77;30.00;97195.50;4969769;28;20589;-67
2023/02/20 08:16:41;;;;;;;7.10;3.40;;;;;;;19.65;29.89;97194.50;4970364;28;20272;-67
2023/02/20 08:19:07;;;;;;;5.87;3.30;;;;;;;19.73;29.80;97194.03;4970469;28;20548;-67
2023/02/20 08:21:32;;;;;;;13.47;5.70;;;;;;;19.76;29.94;97189.31;4970681;28;20173;-68
2023/02/20 08:23:58;;;;;;;4.90;4.37;;;;;;;20.01;29.61;97182.34;4966762;28;20621;-68
2023/02/20 08:26:23;;;;;;;4.10;3.70;;;;;;;19.62;29.99;97176.06;4950886;28;20197;-67
2023/02/20 08:28:49;;;;;;;9.57;4.93;;;;;;;19.37;30.29;97164.44;4959628;28;20181;-68
2023/02/20 08:31:15;;;;;;;7.57;4.90;;;;;;;18.99;31.00;97161.63;4965761;28;20197;-67
2023/02/20 08:33:40;;;;;;;5.87;4.63;;;;;;;18.81;31.65;97163.69;4969056;28;20433;-67
2023/02/20 08:36:06;;;;;;;7.53;4.37;;;;;;;18.58;31.99;97155.34;4968979;28;20533;-68
2023/02/20 08:38:36;;;;;;;24.80;5.93;;;;;;;18.44;31.88;97150.06;4966531;28;20300;-69
2023/02/20 08:41:07;;;;;;;36.73;7.27;;;;;;;18.23;32.46;97160.25;4964362;28;20197;-69
2023/02/20 08:43:34;;;;;;;30.80;7.23;;;;;;;17.98;32.63;97160.94;4969042;28;20451;-70
2023/02/20 08:45:59;;;;;;;14.27;5.07;;;;;;;17.79;33.43;97166.47;4966897;28;20439;-69
2023/02/20 08:48:25;;;;;;;9.43;4.70;;;;;;;17.76;33.76;97170.16;4969120;28;20424;-69
2023/02/20 08:50:51;;;;;;;12.73;5.33;;;;;;;17.42;33.85;97159.84;4969331;28;20197;-70
2023/02/20 08:53:17;;;;;;;52.97;9.83;;;;;;;17.36;34.19;97163.72;4967902;28;20548;-69
2023/02/20 08:55:42;;;;;;;32.47;9.30;;;;;;;17.09;34.54;97166.19;4968112;28;20448;-69
2023/02/20 08:58:08;;;;;;;27.37;7.93;;;;;;;17.44;34.39;97152.66;4968385;28;20628;-70
2023/02/20 09:00:33;;;;;;;14.63;5.23;;;;;;;17.60;33.87;97156.13;4968163;28;20531;-69
2023/02/20 09:02:59;;;;;;;9.37;4.40;;;;;;;17.86;33.20;97146.59;4969057;28;20224;-69
2023/02/20 09:05:25;;;;;;;14.50;5.30;;;;;;;18.12;32.73;97152.97;4969140;28;20527;-69
2023/02/20 09:07:50;;;;;;;10.10;4.30;;;;;;;17.84;32.73;97139.69;4968097;28;20769;-69
2023/02/20 09:10:18;;;;;;;8.87;3.97;;;;;;;17.72;32.78;97155.38;4969148;28;20624;-67
2023/02/20 09:12:44;;;;;;;10.67;4.10;;;;;;;18.14;32.63;97142.22;4967754;28;20293;-68
2023/02/20 09:15:09;;;;;;;11.70;4.40;;;;;;;17.88;32.76;97135.88;4969077;28;20906;-70
2023/02/20 09:17:35;;;;;;;5.70;3.80;;;;;;;17.99;32.88;97138.72;4967202;28;20371;-70
2023/02/20 09:20:00;;;;;;;11.50;4.60;;;;;;;17.96;33.02;97123.84;4968369;28;20212;-69
2023/02/20 09:22:26;;;;;;;8.03;4.70;;;;;;;18.21;32.83;97122.28;4969015;28;20200;-69
2023/02/20 09:24:53;;;;;;;11.60;5.20;;;;;;;18.19;33.04;97122.41;4968867;28;20181;-69
2023/02/20 09:27:19;;;;;;;7.47;4.17;;;;;;;18.05;33.10;97126.84;4968463;28;20237;-70
2023/02/20 09:29:45;;;;;;;7.00;3.90;;;;;;;18.06;33.38;97124.09;4967505;28;20448;-69
2023/02/20 09:32:11;;;;;;;10.33;4.97;;;;;;;18.03;33.52;97123.47;4955667;28;20226;-70
2023/02/20 09:34:36;;;;;;;8.10;3.60;;;;;;;17.78;33.73;97125.78;4968613;28;20277;-70
2023/02/20 09:37:02;;;;;;;106.37;14.30;;;;;;;18.01;32.90;97128.00;4968188;28;20447;-70
2023/02/20 09:39:27;;;;;;;28.50;5.00;;;;;;;18.23;32.38;97117.72;4968600;28;20212;-70
2023/02/20 09:42:07;;;;;;;5.97;3.93;;;;;;;18.36;32.11;97109.84;4968720;28;20203;-70
2023/02/20 09:44:57;;;;;;;7.23;3.80;;;;;;;18.19;32.34;97092.34;4967003;28;20768;-68
2023/02/20 09:47:28;;;;;;;14.03;4.73;;;;;;;17.99;32.84;97091.75;4965652;28;20468;-71
2023/02/20 09:49:59;;;;;;;16.57;4.47;;;;;;;18.16;32.76;97090.69;4968524;28;20428;-70
2023/02/20 09:52:25;;;;;;;6.57;4.00;;;;;;;17.99;32.91;97094.41;4967046;28;20448;-70
2023/02/20 09:55:05;;;;;;;14.40;4.37;;;;;;;18.19;32.81;97087.03;4967177;28;20445;-70
2023/02/20 09:57:34;;;;;;;14.53;4.50;;;;;;;18.13;32.35;97082.09;4968019;28;20417;-70
2023/02/20 10:00:16;;;;;;;23.23;5.70;;;;;;;17.95;32.28;97078.78;4966134;28;20447;-69
2023/02/20 10:02:46;;;;;;;8.70;4.37;;;;;;;17.76;33.08;97089.66;4968714;28;20181;-69
2023/02/20 10:05:21;;;;;;;8.83;4.17;;;;;;;17.73;33.09;97090.69;4967197;28;20424;-69
2023/02/20 10:07:49;;;;;;;12.83;4.43;;;;;;;17.91;32.92;97083.44;4967866;28;20464;-69
2023/02/20 10:10:25;;;;;;;10.23;4.97;;;;;;;17.85;32.92;97081.16;4968648;28;20514;-70
2023/02/20 10:13:03;;;;;;;5.00;3.40;;;;;;;17.70;33.34;97079.44;4968572;28;20446;-69
2023/02/20 10:15:42;;;;;;;6.60;4.50;;;;;;;17.73;33.48;97074.75;4966515;28;20444;-69
2023/02/20 10:18:38;;;;;;;22.30;6.13;;;;;;;17.48;33.81;97078.09;4967598;28;20417;-69
2023/02/20 10:21:13;;;;;;;18.40;5.30;;;;;;;17.85;33.36;97073.19;4967815;28;20531;-69
2023/02/20 10:23:49;;;;;;;10.03;5.27;;;;;;;18.03;33.47;97081.81;4968578;28;20836;-68
2023/02/20 10:26:21;;;;;;;14.93;5.57;;;;;;;18.01;33.56;97074.91;4967686;28;20506;-69
2023/02/20 10:28:49;;;;;;;29.90;6.93;;;;;;;17.85;34.12;97077.66;4962265;28;20412;-69
2023/02/20 10:32:00;;;;;;;57.43;9.30;;;;;;;17.49;34.05;97073.63;4955931;28;20452;-68
2023/02/20 10:34:41;;;;;;;18.63;4.87;;;;;;;17.94;34.03;97071.78;4970956;28;20439;-69
2023/02/20 10:37:14;;;;;;;33.73;7.70;;;;;;;18.13;33.11;97071.47;4972190;28;20404;-70
2023/02/20 10:39:47;;;;;;;10.30;4.90;;;;;;;18.09;33.31;97067.28;4972792;28;20444;-70
2023/02/20 10:42:18;;;;;;;11.43;5.00;;;;;;;17.69;33.80;97053.81;4949498;29;20417;-69
2023/02/20 10:45:08;;;;;;;8.83;4.77;;;;;;;17.83;33.75;97051.19;4949493;28;20779;-70
2023/02/20 10:47:47;;;;;;;8.90;3.80;;;;;;;17.78;33.40;97046.13;4949260;28;20461;-71
2023/02/20 10:50:33;;;;;;;7.83;4.00;;;;;;;18.01;32.67;97041.22;4950370;28;20426;-68
2023/02/20 10:53:17;;;;;;;6.80;3.60;;;;;;;18.05;32.83;97028.59;4960233;28;20809;-70
2023/02/20 10:55:55;;;;;;;8.20;3.50;;;;;;;18.04;33.53;97032.19;4968434;28;20431;-70
2023/02/20 10:58:32;;;;;;;5.90;4.07;;;;;;;18.26;33.02;97023.69;4968404;28;20423;-72
2023/02/20 11:01:02;;;;;;;8.00;4.30;;;;;;;18.27;33.26;97028.06;4968210;28;20427;-71
2023/02/20 11:03:43;;;;;;;9.23;3.83;;;;;;;18.18;32.89;97027.69;4966895;28;20954;-71
2023/02/20 11:06:13;;;;;;;17.00;5.43;;;;;;;18.15;33.50;97005.81;4968107;28;20409;-72
2023/02/20 11:08:38;;;;;;;11.20;4.60;;;;;;;18.17;33.51;97015.38;4968731;28;20413;-71
2023/02/20 11:11:38;;;;;;;22.90;5.90;;;;;;;18.29;33.24;97007.56;4968295;28;20436;-69
2023/02/20 11:14:41;;;;;;;5.60;3.73;;;;;;;18.27;33.38;97002.34;4968249;28;20220;-71
2023/02/20 11:17:18;;;;;;;6.70;3.60;;;;;;;18.25;33.74;96998.94;4972474;28;20408;-71
2023/02/20 11:19:43;;;;;;;8.10;3.90;;;;;;;18.43;34.32;97006.69;4967876;28;20429;-69
2023/02/20 11:22:09;;;;;;;4.77;3.40;;;;;;;18.17;33.68;97006.56;4967991;28;21042;-70
2023/02/20 11:24:36;;;;;;;7.50;4.03;;;;;;;18.29;33.58;97004.91;4968388;28;20174;-70
2023/02/20 11:27:24;;;;;;;15.87;4.33;;;;;;;18.43;34.17;97004.03;4967618;28;20863;-70
2023/02/20 11:29:55;;;;;;;4.70;3.87;;;;;;;18.33;33.58;97007.28;4956251;28;20426;-70
2023/02/20 11:32:28;;;;;;;10.37;3.57;;;;;;;18.39;33.75;96998.88;4968221;28;20440;-70
2023/02/20 11:35:03;;;;;;;13.40;4.33;;;;;;;18.46;33.67;96986.06;4968328;28;20571;-70
2023/02/20 11:37:29;;;;;;;8.23;4.80;;;;;;;18.43;34.22;96982.75;4967703;28;20409;-70
2023/02/20 11:39:59;;;;;;;6.23;3.97;;;;;;;18.41;34.33;96990.81;4967865;28;20437;-69
2023/02/20 11:42:32;;;;;;;6.50;4.50;;;;;;;18.49;34.27;96975.22;4967572;28;20773;-69
2023/02/20 11:45:11;;;;;;;5.37;3.23;;;;;;;18.45;34.21;96973.72;4967460;28;20660;-70
2023/02/20 11:47:37;;;;;;;57.77;9.87;;;;;;;18.52;33.91;96968.84;4967723;28;20926;-71
2023/02/20 11:50:19;;;;;;;188.47;22.23;;;;;;;18.48;34.07;96965.53;4971610;28;20438;-70
2023/02/20 11:52:56;;;;;;;59.57;10.13;;;;;;;18.43;34.43;96964.16;4971281;28;20280;-70
2023/02/20 11:55:24;;;;;;;24.63;5.90;;;;;;;18.31;34.90;96956.03;4971764;28;20878;-71
2023/02/20 11:57:50;;;;;;;23.00;6.10;;;;;;;18.38;34.57;96952.03;4970947;28;20412;-70
2023/02/20 12:00:22;;;;;;;19.50;6.33;;;;;;;18.25;34.80;96948.47;4971278;28;20432;-69
2023/02/20 12:02:50;;;;;;;26.57;5.43;;;;;;;18.23;34.98;96950.38;4971497;28;20449;-70